Time;durP1;ratioP1;P1;durP2;ratioP2;P2;SDS_P1;SDS_P2;PMS_P1;PMS_P2;Temp;Humidity;BMP_temperature;BMP_pressure;BME280_temperature;BME280_humidity;BME280_pressure;Samples;Min_cycle;Max_cycle;Signal;HPM_P1;HPM_P2
2023/02/17 00:01:33;;;;;;;36.20;22.80;;;;;;;2.45;82.25;101537.00;4910904;29;20530;-72
2023/02/17 00:03:59;;;;;;;37.67;22.88;;;;;;;2.59;81.78;101568.03;4910054;29;20154;-68
2023/02/17 00:06:27;;;;;;;39.22;23.67;;;;;;;2.50;81.76;101572.31;4911041;29;20546;-70
2023/02/17 00:08:53;;;;;;;38.17;23.20;;;;;;;2.29;83.08;101553.47;4968053;28;20129;-70
2023/02/17 00:11:19;;;;;;;36.80;22.73;;;;;;;2.28;84.76;101556.81;4968563;28;20108;-71
2023/02/17 00:13:45;;;;;;;38.33;24.13;;;;;;;2.29;84.44;101553.47;4974717;28;20059;-71
2023/02/17 00:16:17;;;;;;;36.10;23.37;;;;;;;2.40;83.37;101556.97;4988285;28;20049;-71
2023/02/17 00:18:43;;;;;;;37.07;22.73;;;;;;;2.15;83.25;101510.63;4987429;28;20053;-70
2023/02/17 00:21:17;;;;;;;37.85;22.80;;;;;;;2.42;82.86;101552.91;4988075;28;20042;-69
2023/02/17 00:23:43;;;;;;;35.85;22.85;;;;;;;2.37;83.97;101557.59;4988239;28;20034;-68
2023/02/17 00:26:09;;;;;;;40.53;23.47;;;;;;;2.36;84.57;101547.28;4986820;28;20093;-68
2023/02/17 00:28:35;;;;;;;37.70;23.63;;;;;;;2.30;85.17;101549.31;4985903;28;20034;-69
2023/02/17 00:31:13;;;;;;;36.67;23.30;;;;;;;2.16;86.74;101531.13;4985308;28;20030;-71
2023/02/17 00:33:39;;;;;;;35.47;22.53;;;;;;;2.07;86.90;101538.00;5045753;28;20105;-71
2023/02/17 00:36:09;;;;;;;38.47;23.63;;;;;;;2.06;87.40;101548.94;5013647;28;20043;-70
2023/02/17 00:38:34;;;;;;;35.92;22.05;;;;;;;1.97;85.13;101546.47;5049439;28;20036;-70
2023/02/17 00:41:00;;;;;;;37.47;23.07;;;;;;;1.79;85.85;101550.78;5048274;28;20029;-72
2023/02/17 00:43:25;;;;;;;37.63;23.03;;;;;;;1.74;87.55;101539.31;5049055;28;20041;-71
2023/02/17 00:45:51;;;;;;;38.60;23.07;;;;;;;1.76;88.54;101543.78;5049018;28;20025;-70
2023/02/17 00:48:16;;;;;;;39.17;24.03;;;;;;;1.81;89.23;101528.00;5049337;28;20036;-71
2023/02/17 00:50:42;;;;;;;38.20;23.50;;;;;;;1.78;89.44;101521.91;5049778;28;20546;-69
2023/02/17 00:53:07;;;;;;;36.67;23.00;;;;;;;1.78;90.39;101516.81;5053335;28;20391;-69
2023/02/17 00:55:32;;;;;;;36.17;22.33;;;;;;;1.70;90.79;101506.72;5052205;28;20032;-71
2023/02/17 00:57:58;;;;;;;34.77;22.27;;;;;;;1.58;90.76;101507.41;5052696;28;20028;-68
2023/02/17 01:00:24;;;;;;;37.70;23.57;;;;;;;1.35;91.14;101500.22;5052400;28;20039;-71
2023/02/17 01:02:49;;;;;;;39.77;24.40;;;;;;;1.24;90.87;101500.91;5052689;28;20051;-70
2023/02/17 01:05:15;;;;;;;40.13;24.83;;;;;;;1.19;90.74;101503.03;5053149;28;20029;-69
2023/02/17 01:07:40;;;;;;;36.73;21.97;;;;;;;1.19;90.17;101508.09;5051952;28;20429;-70
2023/02/17 01:10:08;;;;;;;37.13;22.20;;;;;;;1.14;89.68;101501.72;5052378;28;20021;-67
2023/02/17 01:12:34;;;;;;;40.73;22.03;;;;;;;1.04;89.47;101497.44;5052920;28;21068;-69
2023/02/17 01:14:59;;;;;;;35.50;22.00;;;;;;;0.86;89.77;101486.47;5051502;28;20071;-71
2023/02/17 01:17:25;;;;;;;36.33;21.43;;;;;;;0.73;90.55;101492.06;5053155;28;20028;-68
2023/02/17 01:19:51;;;;;;;37.47;20.90;;;;;;;0.74;90.93;101485.34;5053440;28;20033;-68
2023/02/17 01:22:16;;;;;;;34.50;20.27;;;;;;;0.69;91.07;101484.91;5053286;28;20083;-68
2023/02/17 01:24:42;;;;;;;36.57;21.80;;;;;;;0.74;91.28;101485.34;5053522;28;20060;-68
2023/02/17 01:27:07;;;;;;;36.93;21.57;;;;;;;0.43;92.79;101429.13;5053423;28;20021;-68
2023/02/17 01:29:33;;;;;;;37.97;21.90;;;;;;;0.74;93.78;101482.81;5053163;28;20071;-70
2023/02/17 01:31:58;;;;;;;41.80;23.30;;;;;;;0.53;94.29;101446.13;5053430;28;20082;-70
2023/02/17 01:34:24;;;;;;;39.37;22.67;;;;;;;0.69;93.57;101474.75;5053406;28;20685;-71
2023/02/17 01:36:49;;;;;;;36.00;21.43;;;;;;;0.61;93.71;101453.69;5053165;28;20025;-67
2023/02/17 01:39:16;;;;;;;36.10;21.33;;;;;;;0.77;93.32;101470.34;5053116;28;20035;-71
2023/02/17 01:41:42;;;;;;;36.73;22.30;;;;;;;0.73;91.93;101455.59;5053184;28;20060;-69
2023/02/17 01:44:18;;;;;;;31.77;19.33;;;;;;;0.81;91.31;101467.38;5053227;28;20052;-67
2023/02/17 01:46:46;;;;;;;34.67;20.20;;;;;;;0.72;93.04;101457.22;5053018;28;20090;-70
2023/02/17 01:49:17;;;;;;;37.33;22.50;;;;;;;0.43;93.31;101406.25;5053060;28;20032;-70
2023/02/17 01:51:47;;;;;;;34.27;21.97;;;;;;;0.73;94.29;101466.63;5052727;28;20061;-67
2023/02/17 01:54:21;;;;;;;40.53;22.05;;;;;;;0.65;94.43;101447.25;5052956;28;20492;-67
2023/02/17 01:56:48;;;;;;;34.17;21.30;;;;;;;0.69;94.67;101448.44;5052658;28;20501;-68
2023/02/17 01:59:20;;;;;;;37.13;22.90;;;;;;;0.67;94.88;101455.91;5052933;28;20079;-67
2023/02/17 02:01:49;;;;;;;37.70;21.37;;;;;;;0.56;94.70;101454.00;5052321;28;20033;-69
2023/02/17 02:04:19;;;;;;;38.50;22.10;;;;;;;0.38;95.59;101454.09;5052492;28;20056;-69
2023/02/17 02:06:45;;;;;;;39.63;23.03;;;;;;;0.33;95.85;101455.31;5034977;28;20033;-70
2023/02/17 02:09:21;;;;;;;37.87;21.50;;;;;;;0.30;96.09;101455.91;5052542;28;20070;-68
2023/02/17 02:11:51;;;;;;;41.50;23.70;;;;;;;0.32;96.19;101454.44;5052406;28;20040;-67
2023/02/17 02:14:18;;;;;;;38.40;22.77;;;;;;;0.34;96.12;101449.50;5052432;28;20507;-67
2023/02/17 02:16:50;;;;;;;36.87;22.57;;;;;;;0.28;95.31;101454.00;5052950;28;20036;-67
2023/02/17 02:19:51;;;;;;;39.60;22.77;;;;;;;0.18;95.62;101449.69;5052705;28;20040;-69
2023/02/17 02:22:50;;;;;;;37.13;21.63;;;;;;;-0.25;96.40;101398.28;5052495;28;20475;-70
2023/02/17 02:25:57;;;;;;;41.10;23.40;;;;;;;-0.04;97.27;101445.13;5052289;28;20021;-67
2023/02/17 02:28:50;;;;;;;38.80;22.23;;;;;;;-0.22;96.54;101445.91;4971323;28;20031;-67
2023/02/17 02:31:24;;;;;;;41.67;20.97;;;;;;;-0.12;96.39;101438.41;4970801;28;20031;-68
2023/02/17 02:33:57;;;;;;;37.90;22.87;;;;;;;-0.35;97.28;101403.22;4970796;28;20047;-68
2023/02/17 02:36:35;;;;;;;41.47;24.23;;;;;;;-0.11;99.30;101442.75;4970758;28;20022;-67
2023/02/17 02:39:16;;;;;;;43.40;24.10;;;;;;;-0.12;100.00;101433.34;4970886;28;20440;-68
2023/02/17 02:42:03;;;;;;;37.60;22.30;;;;;;;-0.12;100.00;101425.72;4970648;28;20033;-68
2023/02/17 02:44:29;;;;;;;42.53;24.20;;;;;;;-0.07;100.00;101451.56;4970699;28;20030;-68
2023/02/17 02:46:59;;;;;;;44.17;25.53;;;;;;;-0.11;99.81;101449.44;4970804;28;20513;-69
2023/02/17 02:49:25;;;;;;;43.87;25.53;;;;;;;-0.37;99.33;101392.06;4970754;28;20213;-67
2023/02/17 02:52:02;;;;;;;43.27;24.40;;;;;;;-0.20;98.00;101435.16;4970577;28;20097;-68
2023/02/17 02:54:58;;;;;;;44.50;23.90;;;;;;;-0.43;97.35;101406.69;4970778;28;20149;-68
2023/02/17 02:57:48;;;;;;;42.27;22.83;;;;;;;-0.21;96.62;101452.78;4970649;28;20034;-71
2023/02/17 03:00:16;;;;;;;41.83;23.08;;;;;;;-0.26;97.19;101465.00;5046983;28;20032;-71
2023/02/17 03:02:54;;;;;;;43.27;24.63;;;;;;;-0.46;97.19;101414.91;5049741;28;20509;-67
2023/02/17 03:05:44;;;;;;;39.67;24.87;;;;;;;-0.38;96.67;101463.84;5051565;28;20032;-70
2023/02/17 03:08:16;;;;;;;40.80;22.67;;;;;;;-0.94;99.18;101417.00;5051456;28;20029;-70
2023/02/17 03:10:51;;;;;;;44.23;23.50;;;;;;;-0.76;99.90;101463.50;5051732;28;20032;-70
2023/02/17 03:13:18;;;;;;;48.23;24.33;;;;;;;-0.92;100.00;101436.66;5047969;28;20040;-71
2023/02/17 03:15:44;;;;;;;40.00;23.07;;;;;;;-0.66;100.00;101461.16;5031538;28;20029;-70
2023/02/17 03:18:10;;;;;;;44.00;25.00;;;;;;;-0.63;100.00;101453.84;5031354;28;20026;-69
2023/02/17 03:20:42;;;;;;;43.20;24.47;;;;;;;-0.68;100.00;101460.97;5030961;28;20029;-70
2023/02/17 03:23:08;;;;;;;42.70;24.20;;;;;;;-0.66;100.00;101451.00;5031442;28;20087;-67
2023/02/17 03:25:34;;;;;;;41.97;24.30;;;;;;;-0.73;100.00;101443.56;5031202;28;20439;-67
2023/02/17 03:27:59;;;;;;;44.37;24.87;;;;;;;-0.73;100.00;101441.00;5031203;28;20480;-68
2023/02/17 03:30:26;;;;;;;44.73;24.47;;;;;;;-0.78;100.00;101444.75;5031007;28;20026;-68
2023/02/17 03:32:52;;;;;;;43.27;23.80;;;;;;;-0.87;100.00;101427.88;5030983;28;20053;-68
2023/02/17 03:35:17;;;;;;;48.37;26.80;;;;;;;-0.98;100.00;101428.47;5013158;28;20079;-67
2023/02/17 03:37:43;;;;;;;44.90;24.77;;;;;;;-0.93;100.00;101439.94;5030902;28;20034;-70
2023/02/17 03:40:09;;;;;;;42.13;24.77;;;;;;;-0.89;100.00;101442.03;5030894;28;20124;-69
2023/02/17 03:42:34;;;;;;;47.10;26.63;;;;;;;-0.95;100.00;101446.50;5030917;28;20395;-69
2023/02/17 03:45:00;;;;;;;41.87;24.13;;;;;;;-1.04;100.00;101443.94;5030528;28;20029;-71
2023/02/17 03:47:25;;;;;;;43.47;22.17;;;;;;;-1.01;100.00;101435.75;5031146;28;20037;-68
2023/02/17 03:49:51;;;;;;;42.80;24.07;;;;;;;-0.99;100.00;101426.66;5031126;28;20100;-67
2023/02/17 03:52:17;;;;;;;43.33;24.13;;;;;;;-1.03;100.00;101437.25;5030653;28;20030;-72
2023/02/17 03:54:42;;;;;;;41.40;23.90;;;;;;;-1.06;100.00;101434.41;5030736;28;20034;-68
2023/02/17 03:57:08;;;;;;;42.67;23.60;;;;;;;-1.02;100.00;101436.53;5030984;28;20509;-69
2023/02/17 03:59:34;;;;;;;43.07;25.67;;;;;;;-1.01;100.00;101438.28;5030740;28;20068;-72
2023/02/17 04:01:59;;;;;;;42.80;23.33;;;;;;;-1.01;99.98;101431.59;5030528;28;20112;-72
2023/02/17 04:04:25;;;;;;;40.27;22.83;;;;;;;-0.92;100.00;101434.13;5030396;28;20030;-69
2023/02/17 04:06:50;;;;;;;40.13;24.37;;;;;;;-1.17;100.00;101385.22;5030720;28;20446;-68
2023/02/17 04:09:16;;;;;;;44.50;24.80;;;;;;;-0.89;100.00;101442.03;5030552;28;20377;-71
2023/02/17 04:11:42;;;;;;;42.13;23.97;;;;;;;-0.95;100.00;101446.50;5030189;28;20075;-69
2023/02/17 04:14:07;;;;;;;46.20;26.03;;;;;;;-0.96;100.00;101429.47;4978855;28;20515;-69
2023/02/17 04:16:33;;;;;;;48.17;26.30;;;;;;;-0.99;100.00;101429.19;5030518;28;20061;-68
2023/02/17 04:18:59;;;;;;;42.73;26.83;;;;;;;-1.29;100.00;101386.53;5030434;28;20033;-69
2023/02/17 04:21:24;;;;;;;40.33;24.80;;;;;;;-1.09;100.00;101429.03;5030290;28;20118;-68
2023/02/17 04:23:50;;;;;;;44.37;25.70;;;;;;;-1.05;100.00;101438.72;5030342;28;20037;-72
2023/02/17 04:26:15;;;;;;;46.27;27.53;;;;;;;-1.24;100.00;101392.94;5030445;28;20038;-73
2023/02/17 04:28:41;;;;;;;44.63;25.87;;;;;;;-0.95;100.00;101445.59;5030593;28;20030;-72
2023/02/17 04:31:07;;;;;;;44.50;26.50;;;;;;;-0.89;100.00;101443.69;5035501;28;20031;-71
2023/02/17 04:33:33;;;;;;;45.03;27.37;;;;;;;-0.94;100.00;101422.06;5036156;28;20507;-71
2023/02/17 04:35:59;;;;;;;43.60;26.10;;;;;;;-0.95;100.00;101428.75;4979325;28;20424;-68
2023/02/17 04:38:29;;;;;;;42.90;26.57;;;;;;;-0.83;100.00;101441.75;5030387;28;20029;-70
2023/02/17 04:40:55;;;;;;;44.53;26.20;;;;;;;-1.05;100.00;101408.31;5030025;28;20320;-71
2023/02/17 04:43:22;;;;;;;44.57;25.80;;;;;;;-1.11;100.00;101387.44;5030326;28;20041;-71
2023/02/17 04:45:47;;;;;;;42.67;25.57;;;;;;;-0.84;100.00;101434.88;5030335;28;20029;-72
2023/02/17 04:48:13;;;;;;;46.70;26.83;;;;;;;-0.86;100.00;101438.91;5030166;28;20040;-71
2023/02/17 04:50:39;;;;;;;44.30;25.77;;;;;;;-0.82;100.00;101438.47;5028257;28;20056;-71
2023/02/17 04:53:04;;;;;;;49.33;27.00;;;;;;;-0.86;100.00;101427.13;5002669;28;20108;-70
2023/02/17 04:55:30;;;;;;;44.10;26.70;;;;;;;-0.92;100.00;101436.66;5022832;28;20032;-69
2023/02/17 04:57:56;;;;;;;47.43;28.07;;;;;;;-1.08;100.00;101434.25;5021565;28;20025;-72
2023/02/17 05:00:21;;;;;;;50.00;27.13;;;;;;;-1.19;100.00;101461.06;5019038;28;20113;-68
2023/02/17 05:02:47;;;;;;;47.33;26.57;;;;;;;-1.43;100.00;101458.59;5021412;28;20040;-71
2023/02/17 05:05:14;;;;;;;49.97;27.17;;;;;;;-1.60;100.00;101406.25;5010235;28;20484;-68
2023/02/17 05:07:44;;;;;;;52.07;28.33;;;;;;;-1.33;100.00;101458.78;5010134;28;20037;-71
2023/02/17 05:10:11;;;;;;;48.57;29.27;;;;;;;-1.19;100.00;101456.00;5010477;28;20026;-71
2023/02/17 05:12:36;;;;;;;51.67;28.77;;;;;;;-1.08;100.00;101449.47;5010517;28;20030;-71
2023/02/17 05:15:03;;;;;;;59.13;33.50;;;;;;;-1.09;100.00;101447.66;5010033;28;20130;-73
2023/02/17 05:17:28;;;;;;;54.67;31.70;;;;;;;-1.08;100.00;101457.06;5010092;28;20026;-73
2023/02/17 05:19:53;;;;;;;52.47;30.67;;;;;;;-1.04;100.00;101446.47;5020584;28;20399;-71
2023/02/17 05:22:19;;;;;;;51.73;29.70;;;;;;;-1.04;100.00;101454.06;5020877;28;20030;-70
2023/02/17 05:24:44;;;;;;;49.20;28.50;;;;;;;-1.18;100.00;101437.50;5010179;28;20469;-71
2023/02/17 05:27:10;;;;;;;47.30;25.63;;;;;;;-1.05;100.00;101456.47;5010301;28;20033;-71
2023/02/17 05:29:35;;;;;;;47.97;26.43;;;;;;;-1.09;100.00;101450.19;5010126;28;20463;-71
2023/02/17 05:32:00;;;;;;;43.83;26.20;;;;;;;-1.31;100.00;101419.28;5010030;28;20045;-71
2023/02/17 05:34:26;;;;;;;48.03;26.87;;;;;;;-1.12;100.00;101465.13;5019460;28;20480;-71
2023/02/17 05:36:51;;;;;;;47.07;27.93;;;;;;;-1.12;100.00;101467.66;5039357;28;20047;-73
2023/02/17 05:39:17;;;;;;;45.83;26.80;;;;;;;-1.06;100.00;101465.72;5033602;28;20514;-68
2023/02/17 05:41:45;;;;;;;48.10;26.30;;;;;;;-1.15;100.00;101465.72;5033405;28;20064;-67
2023/02/17 05:44:11;;;;;;;57.13;29.63;;;;;;;-1.18;100.00;101461.97;5033399;28;20032;-71
2023/02/17 05:46:36;;;;;;;47.30;29.10;;;;;;;-1.15;100.00;101465.72;5033164;28;20026;-69
2023/02/17 05:49:02;;;;;;;49.60;27.70;;;;;;;-1.16;100.00;101481.66;5032996;28;20025;-68
2023/02/17 05:51:27;;;;;;;46.57;28.73;;;;;;;-1.34;100.00;101432.56;5033072;28;20108;-69
2023/02/17 05:53:53;;;;;;;46.60;25.87;;;;;;;-0.96;100.00;101477.66;5033365;28;20101;-70
2023/02/17 05:56:18;;;;;;;47.03;26.80;;;;;;;-1.00;100.00;101488.22;5033152;28;20029;-70
2023/02/17 05:58:43;;;;;;;47.80;28.63;;;;;;;-0.96;100.00;101482.72;5033221;28;20091;-72
2023/02/17 06:01:10;;;;;;;48.77;27.70;;;;;;;-0.79;100.00;101488.59;5033026;28;20022;-71
2023/02/17 06:03:36;;;;;;;47.67;28.57;;;;;;;-0.95;100.00;101453.22;5015215;28;20029;-68
2023/02/17 06:06:01;;;;;;;44.33;28.23;;;;;;;-0.71;100.00;101497.81;5032766;28;20025;-72
2023/02/17 06:08:27;;;;;;;48.03;27.33;;;;;;;-0.64;100.00;101485.00;5033025;28;20521;-69
2023/02/17 06:10:52;;;;;;;47.90;27.87;;;;;;;-0.53;100.00;101489.47;5032981;28;20028;-72
2023/02/17 06:13:18;;;;;;;46.70;26.60;;;;;;;-0.71;100.00;101452.19;5032802;28;20034;-68
2023/02/17 06:15:43;;;;;;;45.13;27.43;;;;;;;-0.43;100.00;101485.31;5032804;28;20057;-69
2023/02/17 06:18:09;;;;;;;45.73;27.23;;;;;;;-0.33;100.00;101491.41;5032859;28;20132;-72
2023/02/17 06:20:34;;;;;;;46.67;28.30;;;;;;;-0.27;100.00;101498.75;5032564;28;20373;-71
2023/02/17 06:23:00;;;;;;;49.67;28.47;;;;;;;-0.14;100.00;101495.75;5032573;28;20506;-67
2023/02/17 06:25:25;;;;;;;51.53;29.47;;;;;;;-0.06;100.00;101509.19;5032458;28;20033;-68
2023/02/17 06:27:50;;;;;;;47.77;28.87;;;;;;;0.07;100.00;101501.97;5032698;28;20029;-67
2023/02/17 06:30:16;;;;;;;54.00;30.57;;;;;;;0.15;100.00;101496.00;5032610;28;20037;-69
2023/02/17 06:32:42;;;;;;;54.93;30.03;;;;;;;0.32;100.00;101500.16;5032308;28;20072;-67
2023/02/17 06:35:07;;;;;;;52.53;29.87;;;;;;;0.32;100.00;101474.75;4980926;28;20114;-70
2023/02/17 06:37:33;;;;;;;52.67;32.83;;;;;;;0.51;100.00;101485.72;5014769;28;20508;-71
2023/02/17 06:39:58;;;;;;;52.83;30.90;;;;;;;0.54;100.00;101492.00;5032243;28;20036;-71
2023/02/17 06:42:24;;;;;;;51.73;29.57;;;;;;;0.64;100.00;101486.13;5032276;28;20099;-71
2023/02/17 06:44:49;;;;;;;45.03;27.33;;;;;;;0.76;100.00;101483.81;5032224;28;20029;-71
2023/02/17 06:47:15;;;;;;;50.60;30.53;;;;;;;0.71;100.00;101480.88;5014294;28;20155;-71
2023/02/17 06:49:40;;;;;;;48.13;27.80;;;;;;;0.69;100.00;101478.94;5030810;28;20022;-70
2023/02/17 06:52:05;;;;;;;53.77;31.00;;;;;;;0.66;100.00;101487.19;5032295;28;20156;-71
2023/02/17 06:54:31;;;;;;;55.00;30.53;;;;;;;0.71;100.00;101485.03;5032179;28;20408;-71
2023/02/17 06:56:56;;;;;;;48.00;28.80;;;;;;;0.77;100.00;101483.97;5031820;28;20501;-67
2023/02/17 06:59:22;;;;;;;50.37;29.60;;;;;;;0.85;100.00;101486.31;5031907;28;20021;-69
2023/02/17 07:01:49;;;;;;;51.37;30.00;;;;;;;0.97;100.00;101484.91;5031911;28;20048;-67
2023/02/17 07:04:14;;;;;;;54.77;31.00;;;;;;;1.16;100.00;101479.88;5032270;28;20498;-71
2023/02/17 07:06:40;;;;;;;53.10;31.13;;;;;;;1.40;100.00;101483.72;5031924;28;20029;-70
2023/02/17 07:09:06;;;;;;;53.27;31.23;;;;;;;1.64;100.00;101484.13;5031869;28;20022;-72
2023/02/17 07:11:31;;;;;;;51.33;31.00;;;;;;;1.80;100.00;101490.59;5031886;28;20037;-70
2023/02/17 07:13:58;;;;;;;48.77;28.20;;;;;;;1.91;100.00;101467.84;5031684;28;20088;-70
2023/02/17 07:16:24;;;;;;;47.17;28.47;;;;;;;2.22;100.00;101478.19;5031592;28;20029;-70
2023/02/17 07:18:50;;;;;;;44.63;27.70;;;;;;;2.42;100.00;101476.47;5031388;28;20037;-71
2023/02/17 07:21:15;;;;;;;42.20;26.27;;;;;;;2.24;100.00;101434.97;5031690;28;20128;-74
2023/02/17 07:23:41;;;;;;;47.53;28.73;;;;;;;2.55;100.00;101484.38;5031675;28;20124;-70
2023/02/17 07:26:09;;;;;;;47.07;27.80;;;;;;;2.66;100.00;101477.66;5031542;28;20439;-70
2023/02/17 07:28:35;;;;;;;44.73;28.43;;;;;;;2.73;100.00;101479.09;5031275;28;20044;-72
2023/02/17 07:31:12;;;;;;;45.50;27.60;;;;;;;2.83;100.00;101470.53;5031168;28;20033;-68
2023/02/17 07:33:38;;;;;;;43.72;28.33;;;;;;;2.88;100.00;101467.59;5030542;28;20033;-70
2023/02/17 07:36:09;;;;;;;46.50;28.60;;;;;;;2.98;100.00;101469.28;5034844;28;20021;-69
2023/02/17 07:38:35;;;;;;;45.28;27.58;;;;;;;3.04;100.00;101471.44;5033442;28;20404;-70
2023/02/17 07:41:15;;;;;;;46.92;29.38;;;;;;;3.12;100.00;101482.28;5051232;28;20041;-68
2023/02/17 07:43:40;;;;;;;;;;;;;;;3.23;100.00;101477.31;5051357;28;20025;-68
2023/02/17 07:46:07;;;;;;;44.97;28.10;;;;;;;3.22;100.00;101461.88;5051008;28;19942;-69
2023/02/17 07:48:33;;;;;;;41.70;25.10;;;;;;;3.39;100.00;101479.47;5051218;28;20105;-67
2023/02/17 07:51:06;;;;;;;46.22;27.38;;;;;;;3.51;100.00;101478.69;5051188;28;20194;-68
2023/02/17 07:53:32;;;;;;;50.53;27.85;;;;;;;3.61;100.00;101477.78;5041066;28;20032;-70
2023/02/17 07:55:57;;;;;;;43.42;26.65;;;;;;;3.70;100.00;101455.50;5030877;28;20029;-68
2023/02/17 07:58:22;;;;;;;45.22;27.77;;;;;;;3.93;100.00;101477.81;5030824;28;20052;-70
2023/02/17 08:00:48;;;;;;;41.72;25.77;;;;;;;4.09;100.00;101472.25;5030249;28;20567;-70
2023/02/17 08:03:13;;;;;;;43.90;28.25;;;;;;;4.17;100.00;101449.84;5030843;28;20025;-73
2023/02/17 08:05:40;;;;;;;39.08;25.65;;;;;;;4.15;100.00;101418.16;5030839;28;20037;-69
2023/02/17 08:13:34;;;;;;;40.60;24.70;;;;;;;4.80;100.00;101476.84;5030754;28;20109;-73
2023/02/17 08:15:59;;;;;;;42.17;25.55;;;;;;;4.85;100.00;101465.31;5030766;28;20108;-73
2023/02/17 08:18:25;;;;;;;40.80;26.23;;;;;;;4.96;100.00;101469.56;5030642;28;20025;-70
2023/02/17 08:20:51;;;;;;;38.28;24.38;;;;;;;5.13;100.00;101467.38;4988420;28;20038;-67
2023/02/17 08:23:19;;;;;;;40.25;24.50;;;;;;;5.26;100.00;101476.84;4988834;28;20516;-68
2023/02/17 08:25:44;;;;;;;38.03;25.10;;;;;;;5.32;100.00;101477.31;4988713;28;20046;-73
2023/02/17 08:28:10;;;;;;;44.42;24.17;;;;;;;5.40;100.00;101480.47;4988817;28;20629;-71
2023/02/17 08:30:37;;;;;;;40.35;23.60;;;;;;;5.30;100.00;101456.72;4988614;28;20050;-69
2023/02/17 08:33:03;;;;;;;33.03;22.00;;;;;;;5.25;100.00;101431.56;4988721;28;20049;-69
2023/02/17 08:35:29;;;;;;;31.02;19.73;;;;;;;5.58;100.00;101463.88;4988816;28;20046;-67
2023/02/17 08:37:54;;;;;;;34.15;22.42;;;;;;;5.62;100.00;101457.28;4988501;28;20042;-70
2023/02/17 08:40:20;;;;;;;31.88;20.20;;;;;;;5.79;100.00;101466.22;4988779;28;20133;-67
2023/02/17 08:42:45;;;;;;;30.63;20.20;;;;;;;5.92;100.00;101468.88;4988518;28;20040;-71
2023/02/17 08:45:14;;;;;;;31.38;19.77;;;;;;;6.05;100.00;101474.94;4988356;28;20141;-72
2023/02/17 08:47:40;;;;;;;32.10;21.33;;;;;;;6.10;100.00;101463.31;4988530;28;20070;-68
2023/02/17 08:50:08;;;;;;;31.23;21.98;;;;;;;6.28;100.00;101472.31;4988652;28;20034;-72
2023/02/17 08:52:34;;;;;;;32.05;19.63;;;;;;;6.28;100.00;101438.97;5004023;28;20034;-70
2023/02/17 08:54:59;;;;;;;32.08;21.88;;;;;;;6.62;100.00;101464.41;5030277;28;20519;-70
2023/02/17 08:57:25;;;;;;;29.60;20.88;;;;;;;6.65;100.00;101461.16;5030244;28;20029;-70
2023/02/17 08:59:51;;;;;;;33.40;21.60;;;;;;;6.76;100.00;101451.63;5030332;28;20033;-73
2023/02/17 09:02:17;;;;;;;29.45;19.05;;;;;;;6.94;100.00;101460.56;5029944;28;20040;-68
2023/02/17 09:04:43;;;;;;;30.95;20.23;;;;;;;6.99;99.56;101455.75;5030334;28;20021;-71
2023/02/17 09:07:11;;;;;;;30.05;19.63;;;;;;;7.16;99.54;101456.88;5029960;28;20588;-71
2023/02/17 09:09:36;;;;;;;36.58;21.60;;;;;;;7.34;98.85;101461.44;5030406;28;20163;-73
2023/02/17 09:12:02;;;;;;;29.45;18.73;;;;;;;7.22;97.05;101426.47;5031531;28;20534;-70
2023/02/17 09:14:27;;;;;;;31.40;21.40;;;;;;;7.53;97.57;101459.31;5033623;28;20500;-68
2023/02/17 09:16:54;;;;;;;34.03;23.10;;;;;;;7.32;96.98;101416.81;5034137;28;20156;-68
2023/02/17 09:19:20;;;;;;;31.75;21.95;;;;;;;7.70;95.80;101460.41;5033118;28;20033;-69
2023/02/17 09:21:47;;;;;;;29.33;19.13;;;;;;;7.80;94.92;101449.03;5033799;28;20030;-67
2023/02/17 09:24:13;;;;;;;30.30;19.88;;;;;;;7.85;94.42;101454.44;5033791;28;20026;-69
2023/02/17 09:26:38;;;;;;;30.75;20.83;;;;;;;8.10;93.94;101454.34;5033877;28;20037;-69
2023/02/17 09:29:04;;;;;;;34.97;23.00;;;;;;;8.14;92.81;101439.97;5033901;28;20052;-70
2023/02/17 09:31:31;;;;;;;32.30;21.58;;;;;;;8.20;92.66;101435.19;5033582;28;20025;-70
2023/02/17 09:34:16;;;;;;;38.70;25.98;;;;;;;8.28;92.12;101400.56;4991726;28;20042;-67
2023/02/17 09:36:41;;;;;;;31.88;21.98;;;;;;;8.74;90.91;101423.94;4992152;28;20038;-73
2023/02/17 09:39:08;;;;;;;36.80;27.25;;;;;;;9.00;90.47;101441.78;4991611;28;20073;-70
2023/02/17 09:41:40;;;;;;;32.50;21.50;;;;;;;9.14;89.10;101440.88;4991754;28;20038;-67
2023/02/17 09:44:30;;;;;;;33.47;22.27;;;;;;;9.29;87.57;101433.16;4991605;28;20050;-69
2023/02/17 09:46:58;;;;;;;31.38;20.90;;;;;;;9.39;86.68;101430.31;4991614;28;20030;-71
2023/02/17 09:49:34;;;;;;;31.45;21.13;;;;;;;9.41;87.47;101432.97;4991356;28;20046;-68
2023/02/17 09:52:16;;;;;;;26.77;17.95;;;;;;;9.48;86.18;101414.47;4989276;28;20552;-71
2023/02/17 09:55:25;;;;;;;31.40;22.13;;;;;;;9.67;86.39;101420.66;4991428;28;20567;-70
2023/02/17 09:58:11;;;;;;;33.80;23.00;;;;;;;9.65;85.05;101371.59;4914848;29;20035;-72
2023/02/17 10:00:56;;;;;;;28.27;21.50;;;;;;;9.62;84.31;101358.53;4898635;29;20424;-71
2023/02/17 10:03:44;;;;;;;30.88;22.42;;;;;;;10.16;82.82;101412.16;4914533;29;20043;-68
2023/02/17 10:06:19;;;;;;;29.60;19.83;;;;;;;10.21;82.26;101415.88;4947491;29;20657;-71
2023/02/17 10:08:58;;;;;;;25.88;19.10;;;;;;;10.45;81.47;101400.81;4952635;29;20041;-70
2023/02/17 10:11:31;;;;;;;26.02;18.67;;;;;;;10.72;78.70;101391.84;4952244;29;20549;-67
2023/02/17 10:14:12;;;;;;;26.30;18.83;;;;;;;10.79;77.31;101386.16;4959798;28;20521;-70
2023/02/17 10:16:46;;;;;;;26.73;18.20;;;;;;;11.08;76.19;101382.47;4970357;28;20406;-72
2023/02/17 10:19:34;;;;;;;25.08;17.85;;;;;;;11.32;72.68;101387.94;4971519;28;20112;-70
2023/02/17 10:22:13;;;;;;;22.70;16.20;;;;;;;11.20;71.48;101327.91;4970850;28;20445;-72
2023/02/17 10:24:38;;;;;;;21.73;15.68;;;;;;;11.59;71.24;101358.16;4971019;28;20057;-71
2023/02/17 10:27:09;;;;;;;20.77;15.40;;;;;;;11.52;69.05;101336.31;4971451;28;20409;-70
2023/02/17 10:29:49;;;;;;;20.92;11.80;;;;;;;11.81;57.40;101360.06;4971289;28;20051;-70
2023/02/17 10:32:22;;;;;;;;;;;;;;;11.89;53.59;101345.78;5030861;28;20040;-67
2023/02/17 10:35:20;;;;;;;18.95;11.65;;;;;;;11.78;52.86;101316.81;5000655;28;19935;-67
2023/02/17 10:37:49;;;;;;;20.77;12.70;;;;;;;11.86;52.83;101306.81;4971006;28;20043;-70
2023/02/17 10:40:21;;;;;;;21.77;13.23;;;;;;;12.37;52.16;101337.56;4971236;28;20038;-70
2023/02/17 10:42:50;;;;;;;19.17;12.20;;;;;;;12.42;50.90;101332.59;4970925;28;20185;-68
2023/02/17 10:45:44;;;;;;;19.63;11.73;;;;;;;12.51;49.87;101340.78;4970951;28;20039;-68
2023/02/17 10:48:22;;;;;;;22.13;12.52;;;;;;;12.34;50.37;101319.31;4908060;29;20037;-69
2023/02/17 10:50:48;;;;;;;22.50;13.07;;;;;;;12.52;50.14;101320.94;4894665;29;20516;-68
2023/02/17 10:53:21;;;;;;;19.08;12.73;;;;;;;12.76;49.25;101324.56;4894643;29;20043;-71
2023/02/17 10:55:54;;;;;;;21.23;12.77;;;;;;;12.65;49.20;101310.28;4907022;29;20044;-72
2023/02/17 10:58:39;;;;;;;21.27;13.23;;;;;;;12.74;48.68;101313.22;4913381;29;20035;-70
2023/02/17 11:01:05;;;;;;;20.65;12.63;;;;;;;12.68;48.42;101309.50;4913174;29;20076;-68
2023/02/17 11:03:32;;;;;;;20.75;13.05;;;;;;;12.38;49.08;101304.81;4913273;29;20043;-70
2023/02/17 11:06:00;;;;;;;20.63;13.45;;;;;;;12.40;49.53;101293.69;4913178;29;20111;-70
2023/02/17 11:08:39;;;;;;;23.25;13.32;;;;;;;12.27;48.95;101292.28;4913067;29;20072;-70
2023/02/17 11:11:13;;;;;;;19.87;14.00;;;;;;;12.18;49.09;101250.47;4913174;29;20036;-69
2023/02/17 11:14:01;;;;;;;18.33;12.93;;;;;;;12.42;49.01;101299.84;4923733;29;20091;-69
2023/02/17 11:16:33;;;;;;;19.63;12.35;;;;;;;12.43;49.02;101290.34;4959136;28;20457;-68
2023/02/17 11:18:59;;;;;;;18.02;12.20;;;;;;;12.60;49.06;101278.13;4959562;28;20498;-71
2023/02/17 11:21:27;;;;;;;17.88;11.75;;;;;;;12.79;47.30;101253.84;4961237;28;20186;-74
2023/02/17 11:24:03;;;;;;;18.17;11.50;;;;;;;13.23;46.23;101283.25;4960835;28;20074;-70